createdAt,value
2023-02-06T00:04:55.390Z,4.23
2023-02-06T00:10:01.467Z,3.84
2023-02-06T00:15:07.761Z,4.32
2023-02-06T00:20:13.901Z,4.41
2023-02-06T00:25:20.137Z,3.75
2023-02-06T00:30:26.212Z,4.35
2023-02-06T00:35:32.329Z,4.46
2023-02-06T00:40:38.390Z,4.26
2023-02-06T00:45:44.556Z,4.66
2023-02-06T00:50:50.617Z,4.67
2023-02-06T00:55:56.794Z,4.00
2023-02-06T01:01:02.864Z,4.62
2023-02-06T01:06:09.171Z,4.61
2023-02-06T01:11:15.294Z,4.06
2023-02-06T01:16:21.519Z,4.07
2023-02-06T01:21:27.595Z,3.92
2023-02-06T01:26:33.807Z,3.88
2023-02-06T01:31:39.943Z,3.85
2023-02-06T01:36:46.082Z,4.47
2023-02-06T01:41:52.177Z,4.12
2023-02-06T01:46:58.420Z,3.89
2023-02-06T01:52:04.477Z,4.12
2023-02-06T01:57:10.744Z,4.14
2023-02-06T02:02:16.820Z,4.08
2023-02-06T02:07:22.966Z,4.34
2023-02-06T02:12:29.048Z,4.58
2023-02-06T02:17:35.372Z,4.36
2023-02-06T02:22:41.483Z,4.40
2023-02-06T02:27:47.674Z,4.16
2023-02-06T02:32:53.723Z,4.51
2023-02-06T02:38:00.007Z,3.97
2023-02-06T02:43:06.069Z,4.96
2023-02-06T02:48:12.284Z,4.83
2023-02-06T02:53:32.642Z,5.05
2023-02-06T02:58:38.888Z,4.42
2023-02-06T03:03:44.978Z,4.29
2023-02-06T03:08:51.160Z,4.81
2023-02-06T03:13:57.251Z,3.14
2023-02-06T03:19:03.505Z,3.40
2023-02-06T03:24:09.561Z,3.12
2023-02-06T03:29:15.763Z,2.94
2023-02-06T03:34:21.833Z,3.04
2023-02-06T03:39:28.214Z,2.98
2023-02-06T03:44:34.267Z,3.24
2023-02-06T03:49:40.583Z,3.18
2023-02-06T03:54:46.708Z,2.99
2023-02-06T03:59:52.840Z,2.85
2023-02-06T04:05:21.856Z,3.27
2023-02-06T04:10:28.039Z,2.95
2023-02-06T04:15:34.539Z,3.01
2023-02-06T04:20:40.123Z,2.91
2023-02-06T04:25:46.262Z,3.04
2023-02-06T04:30:52.564Z,3.23
2023-02-06T04:35:58.609Z,2.95
2023-02-06T04:41:04.797Z,2.95
2023-02-06T04:46:10.974Z,3.66
2023-02-06T04:51:17.083Z,3.72
2023-02-06T04:56:23.176Z,3.68
2023-02-06T05:01:29.488Z,3.09
2023-02-06T05:06:35.586Z,3.33
2023-02-06T05:11:41.805Z,3.18
2023-02-06T05:16:47.886Z,3.20
2023-02-06T05:21:54.490Z,2.83
2023-02-06T05:27:00.629Z,2.78
2023-02-06T05:32:06.824Z,2.83
2023-02-06T05:37:12.959Z,2.70
2023-02-06T05:42:19.144Z,2.81
2023-02-06T05:47:25.590Z,3.15
2023-02-06T05:52:31.894Z,3.04
2023-02-06T05:57:38.157Z,3.27
2023-02-06T06:02:44.447Z,3.32
2023-02-06T06:07:50.525Z,3.01
2023-02-06T06:12:56.883Z,3.36
2023-02-06T06:18:03.081Z,3.62
2023-02-06T06:23:09.273Z,3.61
2023-02-06T06:28:15.372Z,3.51
2023-02-06T06:33:21.507Z,3.88
2023-02-06T06:38:27.582Z,3.31
2023-02-06T06:43:33.826Z,3.92
2023-02-06T06:48:39.876Z,3.33
2023-02-06T06:53:46.152Z,3.53
2023-02-06T06:58:52.212Z,3.83
2023-02-06T07:03:58.411Z,4.04
2023-02-06T07:09:04.884Z,4.34
2023-02-06T07:14:11.338Z,5.60
2023-02-06T07:19:17.403Z,4.09
2023-02-06T07:24:23.720Z,4.23
2023-02-06T07:29:29.821Z,4.27
2023-02-06T07:34:36.007Z,5.02
2023-02-06T07:39:42.090Z,4.49
2023-02-06T07:44:48.261Z,4.94
2023-02-06T07:49:54.452Z,4.79
2023-02-06T07:55:00.682Z,4.98
2023-02-06T08:00:06.766Z,4.81
2023-02-06T08:05:13.007Z,4.83
2023-02-06T08:10:19.105Z,4.48
2023-02-06T08:15:25.250Z,5.02
2023-02-06T08:20:31.486Z,4.90
2023-02-06T08:25:38.215Z,4.73
2023-02-06T08:30:43.522Z,5.70
2023-02-06T08:35:49.705Z,5.38
2023-02-06T08:40:55.800Z,5.21
2023-02-06T08:46:02.024Z,5.22
2023-02-06T08:51:08.170Z,6.25
2023-02-06T08:56:14.422Z,5.93
2023-02-06T09:01:20.556Z,5.80
2023-02-06T09:06:26.673Z,5.69
2023-02-06T09:11:32.821Z,5.90
2023-02-06T09:16:39.134Z,6.44
2023-02-06T09:21:45.293Z,6.76
2023-02-06T09:26:59.725Z,7.38
2023-02-06T09:31:57.155Z,10.77
2023-02-06T09:37:03.452Z,12.39
2023-02-06T09:42:09.550Z,10.04
2023-02-06T09:47:15.800Z,9.63
2023-02-06T09:52:21.932Z,8.91
2023-02-06T09:57:28.360Z,9.21
2023-02-06T10:02:34.442Z,9.69
2023-02-06T10:07:40.786Z,11.39
2023-02-06T10:12:46.809Z,10.71
2023-02-06T10:18:42.268Z,14.37
2023-02-06T10:23:48.337Z,10.44
2023-02-06T10:28:54.590Z,16.12
2023-02-06T10:34:00.696Z,10.76
2023-02-06T10:39:06.952Z,10.05
2023-02-06T10:44:13.067Z,10.15
2023-02-06T10:49:19.311Z,11.77
2023-02-06T10:54:25.398Z,13.43
2023-02-06T10:59:31.587Z,11.04
2023-02-06T11:04:37.681Z,9.80
2023-02-06T11:09:43.884Z,8.96
2023-02-06T11:14:49.943Z,9.29
2023-02-06T11:19:56.085Z,8.53
2023-02-06T11:25:02.183Z,8.73
2023-02-06T11:30:08.376Z,9.10
2023-02-06T11:35:14.602Z,7.42
2023-02-06T11:40:20.856Z,5.87
2023-02-06T11:45:27.029Z,6.40
2023-02-06T11:50:33.175Z,7.72
2023-02-06T11:55:39.504Z,7.80
2023-02-06T12:00:45.450Z,7.10
2023-02-06T12:05:51.522Z,7.74
2023-02-06T12:10:57.877Z,7.67
2023-02-06T12:16:03.944Z,7.76
2023-02-06T12:21:10.189Z,8.07
2023-02-06T12:26:16.291Z,7.35
2023-02-06T12:31:22.668Z,7.91
2023-02-06T12:36:28.508Z,8.23
2023-02-06T12:41:34.710Z,7.38
2023-02-06T12:46:40.763Z,7.35
2023-02-06T12:51:47.064Z,7.23
2023-02-06T12:57:41.840Z,7.79
2023-02-06T13:02:48.178Z,5.79
2023-02-06T13:07:54.302Z,5.70
2023-02-06T13:13:00.552Z,5.40
2023-02-06T13:19:03.884Z,5.97
2023-02-06T13:24:10.262Z,4.67
2023-02-06T13:29:16.343Z,5.51
2023-02-06T13:34:22.532Z,5.52
2023-02-06T13:39:28.640Z,4.97
2023-02-06T13:44:34.845Z,5.54
2023-02-06T13:49:40.964Z,5.06
2023-02-06T13:54:47.520Z,5.25
2023-02-06T13:59:53.598Z,5.13
2023-02-06T14:04:59.849Z,5.35
2023-02-06T14:10:06.006Z,5.17
2023-02-06T14:15:12.192Z,4.89
2023-02-06T14:20:18.280Z,4.31
2023-02-06T14:25:24.449Z,4.62
2023-02-06T14:30:30.625Z,4.43
2023-02-06T14:35:37.036Z,4.19
2023-02-06T14:40:42.601Z,4.05
2023-02-06T14:46:04.202Z,3.96
2023-02-06T14:50:56.406Z,3.96
2023-02-06T14:56:00.328Z,4.09
2023-02-06T15:01:06.470Z,4.26
2023-02-06T15:06:22.008Z,3.75
2023-02-06T15:11:18.080Z,4.52
2023-02-06T15:16:24.994Z,4.09
2023-02-06T15:21:31.012Z,3.87
2023-02-06T15:26:37.332Z,4.11
2023-02-06T15:31:43.527Z,3.77
2023-02-06T15:36:49.775Z,4.53
2023-02-06T15:41:55.901Z,4.01
2023-02-06T15:47:02.069Z,4.27
2023-02-06T15:52:08.115Z,4.07
2023-02-06T15:57:14.811Z,4.16
2023-02-06T16:02:20.962Z,4.19
2023-02-06T16:07:27.084Z,4.32
2023-02-06T16:12:33.135Z,4.70
2023-02-06T16:17:39.352Z,4.86
2023-02-06T16:22:45.435Z,4.15
2023-02-06T16:27:51.727Z,4.35
2023-02-06T16:32:57.858Z,4.55
2023-02-06T16:38:04.136Z,7.24
2023-02-06T16:43:10.303Z,7.34
2023-02-06T16:48:16.639Z,7.71
2023-02-06T16:53:22.787Z,7.99
2023-02-06T16:58:29.011Z,8.28
2023-02-06T17:03:35.119Z,8.67
2023-02-06T17:08:41.479Z,8.30
2023-02-06T17:13:47.595Z,7.94
2023-02-06T17:18:53.846Z,7.35
2023-02-06T17:23:59.973Z,7.79
2023-02-06T17:29:06.317Z,6.90
2023-02-06T17:34:12.422Z,6.85
2023-02-06T17:39:18.730Z,6.04
2023-02-06T17:44:24.886Z,6.35
2023-02-06T17:49:31.037Z,6.81
2023-02-06T17:54:37.170Z,6.02
2023-02-06T17:59:43.381Z,6.44
2023-02-06T18:04:49.637Z,8.31
2023-02-06T18:09:55.863Z,8.86
2023-02-06T18:15:01.921Z,11.03
2023-02-06T18:20:08.038Z,12.28
2023-02-06T18:25:14.160Z,17.92
2023-02-06T18:30:20.463Z,13.66
2023-02-06T18:35:26.620Z,14.25
2023-02-06T18:40:32.863Z,14.18
2023-02-06T18:45:38.986Z,13.82
2023-02-06T18:50:45.205Z,15.98
2023-02-06T18:55:52.122Z,15.42
2023-02-06T19:00:58.357Z,15.34
2023-02-06T19:06:04.423Z,16.21
2023-02-06T19:11:10.659Z,15.76
2023-02-06T19:16:16.832Z,13.84
2023-02-06T19:21:22.979Z,11.72
2023-02-06T19:26:29.054Z,11.69
2023-02-06T19:31:35.493Z,12.44
2023-02-06T19:36:41.627Z,12.86
2023-02-06T19:41:47.832Z,12.06
2023-02-06T19:46:54.019Z,11.76
2023-02-06T19:52:00.473Z,11.87
2023-02-06T19:57:06.648Z,11.45
2023-02-06T20:02:13.004Z,12.65
2023-02-06T20:07:19.136Z,13.61
2023-02-06T20:12:25.531Z,13.73
2023-02-06T20:17:31.622Z,12.81
2023-02-06T20:22:38.159Z,12.55
2023-02-06T20:27:46.591Z,13.13
2023-02-06T20:32:52.684Z,14.08
2023-02-06T20:37:58.759Z,13.87
2023-02-06T20:43:04.928Z,12.95
2023-02-06T20:48:11.023Z,10.52
2023-02-06T20:53:17.189Z,9.97
2023-02-06T20:58:23.270Z,9.76
2023-02-06T21:03:29.438Z,9.14
2023-02-06T21:08:35.506Z,9.16
2023-02-06T21:13:41.755Z,9.36
2023-02-06T21:18:47.829Z,8.47
2023-02-06T21:23:54.119Z,8.81
2023-02-06T21:29:00.240Z,8.71
2023-02-06T21:34:07.463Z,8.04
2023-02-06T21:39:13.529Z,8.22
2023-02-06T21:44:19.744Z,8.01
2023-02-06T21:49:25.831Z,9.57
2023-02-06T21:54:32.072Z,8.84
2023-02-06T21:59:38.177Z,9.02
2023-02-06T22:04:44.398Z,7.74
2023-02-06T22:09:50.488Z,8.09
2023-02-06T22:14:56.759Z,8.51
2023-02-06T22:20:02.964Z,8.65
2023-02-06T22:25:09.116Z,8.65
2023-02-06T22:30:15.279Z,9.13
2023-02-06T22:35:21.466Z,9.05
2023-02-06T22:40:27.557Z,9.00
2023-02-06T22:45:33.840Z,8.79
2023-02-06T22:50:39.921Z,8.69
2023-02-06T22:55:46.199Z,8.61
2023-02-06T23:00:52.465Z,8.47
2023-02-06T23:05:58.718Z,8.51
2023-02-06T23:11:04.797Z,8.23
2023-02-06T23:16:10.966Z,8.17
2023-02-06T23:21:17.055Z,7.73
2023-02-06T23:26:23.246Z,8.02
2023-02-06T23:31:29.348Z,7.87
2023-02-06T23:36:35.530Z,8.22
2023-02-06T23:41:41.720Z,7.97
2023-02-06T23:46:47.939Z,8.05
2023-02-06T23:51:54.002Z,8.71
2023-02-06T23:57:00.190Z,7.58
